Current Conditions
Partly Cloudy
Conditions



Pressure
30.14 (inHG) - 1020.66 (mb)
Visibility

10.0 (miles) - 16.1 (km)
Temperature
95  °F
Temperature
72  °F
Dewpoint
47  %
 Humidity
Wind Speed
7  mph
6  kts
11  km/h
3.1  m/s
Wind Direction
N
45°
E
90°
135°
S
180°
225°
W
270°
315°
 230°

South West
Airport Data
KMHT
Manchester-Boston Regional Airport
Metar :KMHT 201953Z 23006KT 10SM FEW050 BKN250 35/22 A3014 RMK AO2 LTG DSNT N SLP213 T03500217
Thu 20th June 15:53 pm
Raw Metar Info
Raw METAR is the most common format in the world for the transmission of observational weather data. It is highly standardized through the International Civil Aviation Organization (ICAO), which allows it to be understood throughout most of the world.
API Info
Data Provided by
https://www.checkwx.com/weather/KMHT

Aviation Weather providing METAR, TAF, AIRMET, SIGMET and OUTLOOK Weather Reports
© Info
CSS/SVG/PHP scripts were developed by weather34 for use in the weather34 template © 2015-2024

Guide Info provided by Metar-Wikipedia